createdAt,value
2023-07-30T00:01:11.258Z,21.63
2023-07-30T00:03:38.702Z,21.65
2023-07-30T00:06:06.336Z,21.56
2023-07-30T00:08:33.752Z,21.61
2023-07-30T00:11:01.089Z,21.52
2023-07-30T00:13:28.445Z,21.51
2023-07-30T00:15:55.853Z,21.51
2023-07-30T00:18:23.236Z,21.49
2023-07-30T00:20:50.593Z,21.41
2023-07-30T00:23:17.883Z,21.42
2023-07-30T00:25:45.197Z,21.42
2023-07-30T00:28:13.915Z,21.45
2023-07-30T00:30:41.400Z,21.36
2023-07-30T00:33:08.987Z,21.32
2023-07-30T00:35:36.359Z,21.26
2023-07-30T00:38:03.784Z,21.23
2023-07-30T00:40:31.379Z,21.25
2023-07-30T00:42:58.801Z,21.20
2023-07-30T00:45:26.224Z,21.21
2023-07-30T00:47:55.442Z,21.22
2023-07-30T00:50:23.068Z,21.11
2023-07-30T00:52:50.952Z,21.15
2023-07-30T00:55:19.540Z,21.14
2023-07-30T00:57:47.434Z,21.13
2023-07-30T01:00:15.180Z,21.14
2023-07-30T01:02:44.137Z,21.14
2023-07-30T01:05:11.780Z,20.89
2023-07-30T01:07:39.075Z,20.90
2023-07-30T01:10:07.178Z,20.96
2023-07-30T01:12:36.731Z,20.98
2023-07-30T01:15:05.495Z,20.96
2023-07-30T01:17:33.295Z,20.95
2023-07-30T01:20:00.780Z,20.86
2023-07-30T01:22:28.212Z,20.82
2023-07-30T01:24:57.648Z,20.79
2023-07-30T01:27:30.855Z,20.82
2023-07-30T01:30:23.971Z,20.75
2023-07-30T01:32:53.330Z,20.76
2023-07-30T01:35:26.069Z,20.69
2023-07-30T01:37:53.962Z,20.69
2023-07-30T01:40:22.290Z,20.73
2023-07-30T01:42:51.312Z,20.77
2023-07-30T01:45:19.210Z,20.75
2023-07-30T01:47:47.850Z,20.74
2023-07-30T01:50:15.268Z,20.78
2023-07-30T01:52:42.648Z,20.79
2023-07-30T01:55:10.313Z,20.76
2023-07-30T01:57:37.645Z,20.75
2023-07-30T02:00:05.586Z,20.81
2023-07-30T02:02:33.436Z,20.73
2023-07-30T02:05:01.188Z,20.76
2023-07-30T02:07:28.595Z,20.79
2023-07-30T02:09:56.018Z,20.75
2023-07-30T02:12:23.509Z,20.79
2023-07-30T02:14:50.881Z,20.71
2023-07-30T02:17:18.325Z,20.75
2023-07-30T02:19:45.661Z,20.75
2023-07-30T02:22:12.978Z,20.82
2023-07-30T02:24:40.282Z,20.71
2023-07-30T02:27:07.898Z,20.67
2023-07-30T02:29:35.190Z,20.69
2023-07-30T02:32:02.617Z,20.77
2023-07-30T02:34:30.147Z,20.72
2023-07-30T02:36:57.434Z,20.79
2023-07-30T02:39:24.815Z,20.82
2023-07-30T02:41:52.202Z,20.80
2023-07-30T02:44:21.287Z,20.81
2023-07-30T02:46:48.632Z,20.85
2023-07-30T02:49:16.159Z,20.74
2023-07-30T02:51:49.582Z,20.83
2023-07-30T02:54:18.185Z,20.93
2023-07-30T02:56:46.702Z,20.93
2023-07-30T02:59:14.030Z,20.95
2023-07-30T03:01:42.124Z,20.95
2023-07-30T03:04:09.705Z,21.01
2023-07-30T03:06:37.247Z,20.96
2023-07-30T03:09:04.564Z,21.00
2023-07-30T03:11:31.826Z,21.02
2023-07-30T03:13:59.129Z,20.97
2023-07-30T03:16:26.733Z,21.00
2023-07-30T03:18:54.030Z,20.95
2023-07-30T03:21:21.328Z,20.85
2023-07-30T03:23:49.596Z,20.92
2023-07-30T03:26:20.144Z,20.97
2023-07-30T03:28:47.747Z,20.86
2023-07-30T03:31:15.100Z,20.93
2023-07-30T03:33:47.166Z,20.90
2023-07-30T03:36:15.302Z,20.94
2023-07-30T03:38:43.865Z,20.95
2023-07-30T03:41:11.972Z,21.00
2023-07-30T03:43:39.583Z,21.00
2023-07-30T03:46:07.044Z,20.98
2023-07-30T03:48:37.244Z,20.94
2023-07-30T03:51:04.618Z,21.00
2023-07-30T03:53:31.918Z,20.99
2023-07-30T03:55:59.244Z,21.08
2023-07-30T03:58:27.417Z,21.09
2023-07-30T04:00:54.869Z,21.05
2023-07-30T04:03:22.544Z,21.04
2023-07-30T04:05:49.828Z,21.05
2023-07-30T04:08:17.917Z,21.19
2023-07-30T04:10:45.273Z,21.26
2023-07-30T04:13:12.811Z,21.33
2023-07-30T04:15:41.534Z,21.38
2023-07-30T04:18:08.898Z,21.47
2023-07-30T04:20:36.791Z,21.54
2023-07-30T04:23:04.086Z,21.55
2023-07-30T04:25:31.449Z,21.61
2023-07-30T04:27:59.143Z,21.63
2023-07-30T04:30:26.620Z,21.65
2023-07-30T04:32:55.237Z,21.70
2023-07-30T04:35:22.740Z,21.77
2023-07-30T04:37:50.070Z,21.77
2023-07-30T04:40:18.403Z,21.83
2023-07-30T04:42:45.905Z,21.80
2023-07-30T04:45:13.243Z,21.72
2023-07-30T04:47:44.260Z,21.70
2023-07-30T04:50:11.608Z,21.78
2023-07-30T04:52:39.393Z,21.75
2023-07-30T04:55:07.671Z,21.80
2023-07-30T04:57:35.100Z,21.78
2023-07-30T05:00:02.838Z,21.82
2023-07-30T05:02:32.123Z,21.84
2023-07-30T05:04:59.569Z,21.87
2023-07-30T05:07:26.943Z,21.86
2023-07-30T05:09:54.204Z,21.88
2023-07-30T05:12:21.467Z,21.87
2023-07-30T05:14:48.803Z,21.89
2023-07-30T05:17:16.160Z,21.92
2023-07-30T05:19:43.498Z,21.98
2023-07-30T05:22:10.946Z,21.97
2023-07-30T05:24:38.524Z,22.01
2023-07-30T05:27:06.315Z,22.02
2023-07-30T05:29:34.751Z,21.99
2023-07-30T05:32:02.184Z,21.92
2023-07-30T05:34:29.692Z,21.90
2023-07-30T05:36:57.106Z,21.97
2023-07-30T05:39:24.428Z,22.04
2023-07-30T05:41:51.792Z,22.14
2023-07-30T05:44:19.164Z,22.24
2023-07-30T05:46:46.572Z,22.24
2023-07-30T05:49:14.055Z,22.27
2023-07-30T05:51:41.564Z,22.14
2023-07-30T05:54:09.216Z,22.20
2023-07-30T05:56:36.542Z,22.28
2023-07-30T05:59:03.953Z,22.25
2023-07-30T06:01:31.518Z,22.23
2023-07-30T06:03:58.846Z,22.27
2023-07-30T06:06:28.404Z,22.32
2023-07-30T06:08:56.212Z,22.38
2023-07-30T06:11:23.983Z,22.42
2023-07-30T06:13:51.327Z,22.49
2023-07-30T06:16:21.277Z,22.46
2023-07-30T06:18:48.866Z,22.47
2023-07-30T06:21:16.285Z,22.60
2023-07-30T06:23:43.734Z,22.61
2023-07-30T06:26:11.038Z,22.80
2023-07-30T06:28:38.490Z,22.78
2023-07-30T06:31:06.049Z,22.87
2023-07-30T06:33:33.701Z,22.93
2023-07-30T06:36:01.129Z,22.96
2023-07-30T06:38:28.540Z,22.98
2023-07-30T06:40:57.427Z,23.01
2023-07-30T06:43:25.382Z,23.05
2023-07-30T06:45:54.144Z,23.10
2023-07-30T06:48:21.589Z,23.12
2023-07-30T06:50:49.052Z,23.14
2023-07-30T06:53:16.626Z,23.07
2023-07-30T06:55:44.279Z,23.27
2023-07-30T06:58:12.262Z,23.30
2023-07-30T07:00:39.611Z,23.37
2023-07-30T07:03:07.264Z,23.44
2023-07-30T07:05:34.710Z,23.57
2023-07-30T07:08:02.046Z,23.79
2023-07-30T07:10:29.586Z,23.89
2023-07-30T07:12:57.030Z,23.98
2023-07-30T07:15:24.407Z,24.01
2023-07-30T07:17:51.837Z,24.12
2023-07-30T07:20:19.511Z,24.31
2023-07-30T07:22:46.908Z,24.45
2023-07-30T07:25:14.372Z,24.47
2023-07-30T07:27:42.131Z,24.74
2023-07-30T07:30:10.258Z,24.73
2023-07-30T07:32:40.050Z,24.91
2023-07-30T07:35:07.974Z,24.78
2023-07-30T07:37:35.344Z,24.81
2023-07-30T07:40:04.078Z,24.98
2023-07-30T07:42:31.817Z,25.17
2023-07-30T07:44:59.215Z,25.25
2023-07-30T07:47:26.723Z,25.32
2023-07-30T07:49:55.216Z,25.24
2023-07-30T07:52:22.639Z,25.35
2023-07-30T07:54:49.969Z,25.45
2023-07-30T07:57:17.402Z,25.55
2023-07-30T07:59:46.316Z,25.74
2023-07-30T08:02:13.927Z,25.98
2023-07-30T08:04:41.467Z,25.91
2023-07-30T08:07:09.092Z,25.91
2023-07-30T08:09:36.464Z,25.87
2023-07-30T08:12:04.269Z,25.95
2023-07-30T08:14:32.421Z,26.06
2023-07-30T08:17:00.065Z,26.13
2023-07-30T08:19:28.337Z,26.35
2023-07-30T08:21:57.788Z,26.18
2023-07-30T08:24:25.431Z,26.49
2023-07-30T08:26:52.812Z,26.14
2023-07-30T08:29:20.147Z,26.17
2023-07-30T08:31:47.502Z,26.40
2023-07-30T08:34:14.917Z,26.53
2023-07-30T08:36:42.401Z,26.67
2023-07-30T08:39:12.462Z,26.78
2023-07-30T08:41:40.355Z,26.75
2023-07-30T08:44:08.308Z,26.70
2023-07-30T08:46:35.812Z,26.71
2023-07-30T08:49:03.369Z,26.66
2023-07-30T08:51:32.672Z,26.72
2023-07-30T08:54:01.552Z,26.70
2023-07-30T08:56:29.305Z,26.60
2023-07-30T08:58:58.888Z,26.71
2023-07-30T09:01:32.986Z,26.33
2023-07-30T09:04:04.252Z,26.02
2023-07-30T09:06:32.140Z,26.15
2023-07-30T09:08:59.562Z,26.36
2023-07-30T09:11:30.874Z,26.53
2023-07-30T09:13:58.937Z,27.06
2023-07-30T09:16:28.105Z,27.38
2023-07-30T09:18:55.768Z,27.00
2023-07-30T09:21:33.777Z,26.88
2023-07-30T09:24:07.071Z,26.49
2023-07-30T09:26:45.883Z,26.36
2023-07-30T09:29:14.080Z,26.71
2023-07-30T09:31:49.301Z,27.03
2023-07-30T09:34:19.587Z,27.27
2023-07-30T09:36:50.020Z,27.30
2023-07-30T09:39:21.494Z,27.20
2023-07-30T09:41:52.473Z,26.85
2023-07-30T09:44:21.995Z,26.60
2023-07-30T09:46:50.106Z,26.57
2023-07-30T09:49:18.965Z,26.77
2023-07-30T09:51:46.437Z,26.93
2023-07-30T09:54:16.577Z,27.03
2023-07-30T09:56:44.157Z,27.13
2023-07-30T09:59:11.588Z,27.25
2023-07-30T10:01:54.654Z,27.51
2023-07-30T10:04:22.416Z,27.37
2023-07-30T10:06:59.697Z,27.53
2023-07-30T10:09:35.495Z,27.55
2023-07-30T10:12:04.916Z,27.70
2023-07-30T10:14:32.721Z,27.83
2023-07-30T10:17:01.837Z,27.86
2023-07-30T10:19:30.424Z,27.72
2023-07-30T10:22:21.786Z,27.86
2023-07-30T10:25:04.582Z,27.90
2023-07-30T10:27:50.435Z,27.87
2023-07-30T10:30:20.409Z,27.72
2023-07-30T10:32:56.848Z,27.76
2023-07-30T10:35:44.711Z,27.80
2023-07-30T10:38:17.006Z,27.73
2023-07-30T10:41:19.232Z,27.88
2023-07-30T10:43:51.429Z,28.24
2023-07-30T10:46:20.439Z,28.37
2023-07-30T10:48:49.363Z,28.31
2023-07-30T10:51:18.765Z,28.13
2023-07-30T10:53:47.278Z,27.92
2023-07-30T10:56:17.427Z,28.12
2023-07-30T10:58:50.096Z,28.05
2023-07-30T11:01:17.707Z,28.21
2023-07-30T11:03:49.424Z,28.18
2023-07-30T11:06:25.558Z,28.29
2023-07-30T11:08:54.056Z,28.44
2023-07-30T11:11:21.630Z,28.63
2023-07-30T11:13:49.001Z,28.66
2023-07-30T11:16:17.389Z,28.81
2023-07-30T11:18:45.534Z,28.83
2023-07-30T11:21:15.413Z,28.82
2023-07-30T11:23:44.341Z,28.65
2023-07-30T11:26:19.655Z,28.75
2023-07-30T11:28:47.732Z,28.72
2023-07-30T11:31:20.280Z,28.85
2023-07-30T11:33:50.040Z,28.75
2023-07-30T11:36:20.263Z,28.58
2023-07-30T11:38:48.964Z,28.63
2023-07-30T11:41:16.943Z,28.29
2023-07-30T11:43:45.626Z,28.27
2023-07-30T11:46:18.453Z,28.62
2023-07-30T11:48:48.591Z,28.55
2023-07-30T11:51:29.809Z,28.58
2023-07-30T11:53:58.518Z,28.55
2023-07-30T11:56:28.398Z,28.54
2023-07-30T11:59:01.360Z,28.45
2023-07-30T12:01:31.942Z,28.15
2023-07-30T12:04:01.075Z,28.38
2023-07-30T12:06:41.451Z,28.01
2023-07-30T12:09:20.949Z,28.11
2023-07-30T12:11:55.446Z,28.32
2023-07-30T12:14:31.936Z,28.23
2023-07-30T12:17:02.974Z,28.41
2023-07-30T12:19:31.126Z,28.34
2023-07-30T12:21:58.387Z,28.64
2023-07-30T12:24:25.821Z,28.72
2023-07-30T12:26:55.805Z,28.51
2023-07-30T12:29:23.870Z,28.43
2023-07-30T12:31:54.503Z,28.46
2023-07-30T12:34:21.996Z,28.57
2023-07-30T12:36:49.365Z,28.25
2023-07-30T12:39:16.638Z,28.25
2023-07-30T12:41:44.040Z,28.38
2023-07-30T12:44:11.392Z,28.29
2023-07-30T12:46:38.930Z,27.99
2023-07-30T12:49:06.425Z,27.84
2023-07-30T12:51:35.569Z,27.68
2023-07-30T12:54:02.947Z,27.74
2023-07-30T12:56:30.258Z,27.90
2023-07-30T12:58:57.616Z,28.10
2023-07-30T13:01:25.078Z,28.14
2023-07-30T13:03:55.564Z,28.20
2023-07-30T13:06:23.602Z,28.27
2023-07-30T13:08:51.034Z,28.39
2023-07-30T13:11:18.596Z,28.34
2023-07-30T13:13:46.816Z,28.34
2023-07-30T13:16:14.246Z,28.54
2023-07-30T13:18:41.542Z,28.65
2023-07-30T13:21:08.948Z,28.75
2023-07-30T13:23:36.265Z,28.72
2023-07-30T13:26:04.291Z,28.58
2023-07-30T13:28:31.874Z,28.60
2023-07-30T13:30:59.329Z,28.53
2023-07-30T13:33:26.748Z,28.59
2023-07-30T13:35:54.164Z,28.63
2023-07-30T13:38:22.783Z,28.62
2023-07-30T13:40:50.255Z,28.55
2023-07-30T13:43:17.623Z,28.45
2023-07-30T13:45:45.094Z,28.45
2023-07-30T13:48:12.535Z,28.58
2023-07-30T13:50:39.881Z,28.67
2023-07-30T13:53:07.271Z,28.77
2023-07-30T13:55:34.727Z,28.78
2023-07-30T13:58:02.374Z,28.71
2023-07-30T14:00:30.145Z,28.71
2023-07-30T14:02:57.543Z,28.57
2023-07-30T14:05:25.081Z,28.52
2023-07-30T14:07:55.184Z,28.38
2023-07-30T14:10:22.867Z,28.54
2023-07-30T14:12:50.617Z,28.63
2023-07-30T14:15:18.035Z,28.77
2023-07-30T14:17:45.409Z,28.50
2023-07-30T14:20:12.750Z,28.32
2023-07-30T14:22:40.244Z,28.38
2023-07-30T14:25:08.020Z,28.56
2023-07-30T14:27:37.141Z,28.77
2023-07-30T14:30:04.948Z,28.95
2023-07-30T14:32:32.425Z,29.06
2023-07-30T14:34:59.852Z,29.01
2023-07-30T14:37:27.151Z,29.01
2023-07-30T14:39:54.457Z,29.02
2023-07-30T14:42:21.937Z,29.21
2023-07-30T14:44:49.201Z,29.08
2023-07-30T14:47:16.478Z,29.11
2023-07-30T14:49:44.373Z,29.22
2023-07-30T14:52:11.705Z,29.28
2023-07-30T14:54:39.172Z,29.39
2023-07-30T14:57:07.076Z,29.65
2023-07-30T14:59:34.459Z,29.88
2023-07-30T15:02:02.403Z,29.97
2023-07-30T15:04:31.869Z,29.98
2023-07-30T15:06:59.146Z,29.98
2023-07-30T15:09:26.468Z,30.08
2023-07-30T15:11:53.769Z,30.10
2023-07-30T15:14:21.496Z,29.82
2023-07-30T15:16:48.854Z,29.48
2023-07-30T15:19:16.107Z,29.20
2023-07-30T15:21:43.555Z,29.05
2023-07-30T15:24:10.883Z,29.24
2023-07-30T15:26:41.348Z,29.51
2023-07-30T15:29:09.016Z,29.29
2023-07-30T15:31:36.576Z,29.10
2023-07-30T15:34:04.536Z,29.12
2023-07-30T15:36:32.505Z,29.10
2023-07-30T15:38:59.742Z,29.16
2023-07-30T15:41:27.970Z,29.81
2023-07-30T15:43:55.353Z,30.36
2023-07-30T15:46:24.030Z,30.59
2023-07-30T15:48:51.325Z,30.25
2023-07-30T15:51:18.724Z,29.58
2023-07-30T15:53:46.407Z,29.40
2023-07-30T15:56:15.250Z,29.14
2023-07-30T15:58:42.630Z,29.01
2023-07-30T16:01:11.205Z,28.80
2023-07-30T16:03:39.197Z,28.51
2023-07-30T16:06:08.088Z,28.56
2023-07-30T16:08:39.940Z,28.57
2023-07-30T16:11:10.687Z,28.51
2023-07-30T16:13:38.308Z,28.31
2023-07-30T16:16:10.567Z,28.21
2023-07-30T16:18:38.336Z,27.88
2023-07-30T16:21:06.898Z,27.74
2023-07-30T16:23:34.320Z,27.72
2023-07-30T16:26:01.617Z,27.68
2023-07-30T16:28:28.977Z,27.60
2023-07-30T16:30:56.452Z,27.54
2023-07-30T16:33:23.853Z,27.52
2023-07-30T16:35:51.927Z,27.43
2023-07-30T16:38:20.530Z,27.28
2023-07-30T16:40:47.977Z,27.14
2023-07-30T16:43:17.902Z,27.12
2023-07-30T16:45:45.249Z,27.02
2023-07-30T16:48:12.933Z,27.00
2023-07-30T16:50:40.574Z,26.85
2023-07-30T16:53:07.913Z,26.80
2023-07-30T16:55:35.299Z,26.76
2023-07-30T16:58:04.086Z,26.64
2023-07-30T17:00:31.603Z,26.52
2023-07-30T17:02:59.167Z,26.57
2023-07-30T17:05:27.034Z,26.55
2023-07-30T17:07:54.494Z,26.54
2023-07-30T17:10:21.856Z,26.44
2023-07-30T17:12:49.215Z,26.43
2023-07-30T17:15:16.664Z,26.28
2023-07-30T17:17:44.172Z,26.15
2023-07-30T17:20:12.208Z,26.07
2023-07-30T17:22:43.178Z,26.03
2023-07-30T17:25:10.632Z,25.92
2023-07-30T17:27:37.911Z,25.84
2023-07-30T17:30:05.583Z,25.82
2023-07-30T17:32:33.396Z,25.83
2023-07-30T17:35:00.968Z,25.74
2023-07-30T17:37:28.274Z,25.76
2023-07-30T17:39:55.569Z,25.69
2023-07-30T17:42:22.886Z,25.62
2023-07-30T17:44:53.211Z,25.49
2023-07-30T17:47:21.477Z,25.41
2023-07-30T17:49:49.053Z,25.42
2023-07-30T17:52:19.940Z,25.42
2023-07-30T17:54:51.168Z,25.38
2023-07-30T17:57:18.730Z,25.31
2023-07-30T17:59:46.286Z,25.14
2023-07-30T18:02:13.981Z,25.18
2023-07-30T18:04:41.414Z,25.11
2023-07-30T18:07:08.738Z,25.07
2023-07-30T18:09:36.175Z,25.07
2023-07-30T18:12:03.732Z,25.10
2023-07-30T18:14:32.877Z,25.11
2023-07-30T18:17:00.220Z,25.15
2023-07-30T18:19:27.607Z,25.14
2023-07-30T18:21:55.370Z,25.19
2023-07-30T18:24:23.188Z,25.14
2023-07-30T18:26:50.536Z,25.14
2023-07-30T18:29:18.328Z,25.08
2023-07-30T18:31:46.943Z,25.05
2023-07-30T18:34:14.352Z,25.08
2023-07-30T18:36:41.862Z,25.13
2023-07-30T18:39:10.555Z,25.15
2023-07-30T18:41:38.376Z,25.02
2023-07-30T18:44:05.899Z,24.91
2023-07-30T18:46:33.322Z,24.94
2023-07-30T18:49:00.751Z,24.94
2023-07-30T18:51:28.269Z,24.82
2023-07-30T18:53:55.643Z,24.74
2023-07-30T18:56:23.015Z,24.74
2023-07-30T18:58:50.501Z,24.67
2023-07-30T19:01:18.013Z,24.65
2023-07-30T19:03:48.493Z,24.58
2023-07-30T19:06:16.320Z,24.55
2023-07-30T19:08:43.661Z,24.64
2023-07-30T19:11:11.009Z,24.63
2023-07-30T19:13:38.365Z,24.58
2023-07-30T19:16:05.935Z,24.55
2023-07-30T19:18:36.033Z,24.55
2023-07-30T19:21:04.997Z,24.54
2023-07-30T19:23:32.543Z,24.51
2023-07-30T19:25:59.926Z,24.54
2023-07-30T19:28:27.456Z,24.57
2023-07-30T19:30:54.868Z,24.43
2023-07-30T19:33:22.268Z,24.40
2023-07-30T19:35:52.114Z,24.39
2023-07-30T19:38:23.413Z,24.35
2023-07-30T19:40:55.563Z,24.30
2023-07-30T19:43:24.013Z,24.30
2023-07-30T19:45:52.260Z,24.28
2023-07-30T19:48:23.094Z,24.27
2023-07-30T19:50:52.212Z,24.27
2023-07-30T19:53:20.478Z,24.23
2023-07-30T19:55:47.932Z,24.21
2023-07-30T19:58:32.730Z,24.17
2023-07-30T20:01:02.312Z,24.18
2023-07-30T20:03:30.828Z,24.20
2023-07-30T20:06:09.436Z,24.26
2023-07-30T20:08:38.403Z,24.36
2023-07-30T20:11:07.350Z,24.40
2023-07-30T20:13:34.889Z,24.34
2023-07-30T20:16:02.474Z,24.38
2023-07-30T20:18:31.804Z,24.33
2023-07-30T20:20:59.317Z,24.33
2023-07-30T20:23:27.042Z,24.27
2023-07-30T20:25:54.373Z,24.25
2023-07-30T20:28:22.247Z,24.25
2023-07-30T20:30:50.853Z,24.24
2023-07-30T20:33:18.302Z,24.27
2023-07-30T20:35:45.689Z,24.24
2023-07-30T20:38:13.050Z,24.25
2023-07-30T20:40:40.366Z,24.23
2023-07-30T20:43:07.756Z,24.21
2023-07-30T20:45:35.063Z,24.18
2023-07-30T20:48:02.521Z,24.15
2023-07-30T20:50:30.085Z,24.15
2023-07-30T20:52:57.680Z,24.12
2023-07-30T20:55:26.285Z,24.14
2023-07-30T20:57:53.926Z,24.08
2023-07-30T21:00:21.408Z,24.08
2023-07-30T21:02:48.852Z,24.12
2023-07-30T21:05:16.258Z,24.08
2023-07-30T21:07:43.694Z,24.05
2023-07-30T21:10:11.096Z,24.08
2023-07-30T21:12:40.012Z,23.99
2023-07-30T21:15:11.438Z,24.00
2023-07-30T21:17:39.531Z,23.98
2023-07-30T21:20:09.178Z,23.98
2023-07-30T21:22:36.390Z,23.95
2023-07-30T21:25:03.883Z,23.93
2023-07-30T21:27:31.663Z,23.88
2023-07-30T21:29:59.134Z,23.90
2023-07-30T21:32:26.768Z,23.83
2023-07-30T21:34:54.245Z,23.79
2023-07-30T21:37:21.676Z,23.74
2023-07-30T21:39:49.032Z,23.72
2023-07-30T21:42:16.548Z,23.66
2023-07-30T21:44:44.015Z,23.66
2023-07-30T21:47:11.523Z,23.64
2023-07-30T21:49:38.926Z,23.63
2023-07-30T21:52:26.546Z,23.62
2023-07-30T21:54:54.837Z,23.63
2023-07-30T21:57:22.394Z,23.60
2023-07-30T21:59:52.296Z,23.61
2023-07-30T22:02:20.900Z,23.60
2023-07-30T22:04:48.374Z,23.61
2023-07-30T22:07:15.704Z,23.60
2023-07-30T22:09:43.509Z,23.58
2023-07-30T22:12:11.093Z,23.55
2023-07-30T22:14:39.002Z,23.52
2023-07-30T22:17:06.907Z,23.46
2023-07-30T22:19:34.400Z,23.50
2023-07-30T22:22:01.747Z,23.44
2023-07-30T22:24:29.076Z,23.42
2023-07-30T22:26:56.384Z,23.38
2023-07-30T22:29:23.685Z,23.40
2023-07-30T22:31:51.055Z,23.33
2023-07-30T22:34:18.452Z,23.29
2023-07-30T22:36:45.740Z,23.30
2023-07-30T22:39:13.005Z,23.29
2023-07-30T22:41:40.441Z,23.28
2023-07-30T22:44:07.912Z,23.25
2023-07-30T22:46:36.330Z,23.26
2023-07-30T22:49:03.752Z,23.23
2023-07-30T22:51:31.207Z,23.22
2023-07-30T22:53:58.520Z,23.23
2023-07-30T22:56:25.862Z,23.23
2023-07-30T22:58:53.167Z,23.19
2023-07-30T23:01:20.704Z,23.18
2023-07-30T23:03:48.340Z,23.18
2023-07-30T23:06:15.746Z,23.15
2023-07-30T23:08:43.110Z,23.10
2023-07-30T23:11:10.439Z,23.10
2023-07-30T23:13:37.753Z,23.01
2023-07-30T23:16:05.332Z,22.99
2023-07-30T23:18:34.955Z,22.98
2023-07-30T23:21:02.255Z,22.92
2023-07-30T23:23:29.814Z,22.98
2023-07-30T23:25:57.169Z,23.02
2023-07-30T23:28:24.524Z,22.98
2023-07-30T23:30:51.942Z,23.00
2023-07-30T23:33:19.535Z,23.00
2023-07-30T23:35:47.034Z,22.97
2023-07-30T23:38:14.550Z,22.99
2023-07-30T23:40:43.099Z,22.96
2023-07-30T23:43:10.406Z,22.95
2023-07-30T23:45:37.752Z,22.95
2023-07-30T23:48:05.347Z,22.87
2023-07-30T23:50:32.743Z,22.87
2023-07-30T23:53:00.013Z,22.88
2023-07-30T23:55:27.395Z,22.88
2023-07-30T23:57:56.739Z,22.85
